createdAt,value
2022-08-09T00:02:04.714Z,41.18
2022-08-09T00:04:35.620Z,41.19
2022-08-09T00:07:07.882Z,41.17
2022-08-09T00:09:42.464Z,41.49
2022-08-09T00:12:22.756Z,42.30
2022-08-09T00:14:54.476Z,42.58
2022-08-09T00:18:10.731Z,42.71
2022-08-09T00:20:16.693Z,42.93
2022-08-09T00:22:47.161Z,42.56
2022-08-09T00:25:23.144Z,42.72
2022-08-09T00:27:56.037Z,42.47
2022-08-09T00:30:26.996Z,42.53
2022-08-09T00:32:56.470Z,42.69
2022-08-09T00:35:27.491Z,43.27
2022-08-09T00:37:59.004Z,43.55
2022-08-09T00:40:30.941Z,43.47
2022-08-09T00:44:10.305Z,43.63
2022-08-09T00:45:50.759Z,43.83
2022-08-09T00:48:23.530Z,44.08
2022-08-09T00:50:55.108Z,44.41
2022-08-09T00:53:24.753Z,44.54
2022-08-09T00:56:04.166Z,44.96
2022-08-09T00:58:38.956Z,45.38
2022-08-09T01:01:21.309Z,45.54
2022-08-09T01:03:58.260Z,45.78
2022-08-09T01:06:53.299Z,46.01
2022-08-09T01:09:40.141Z,46.00
2022-08-09T01:12:28.032Z,46.49
2022-08-09T01:15:16.887Z,46.65
2022-08-09T01:18:08.412Z,46.95
2022-08-09T01:20:55.218Z,47.10
2022-08-09T01:24:02.325Z,47.42
2022-08-09T01:26:55.367Z,47.35
2022-08-09T01:29:56.176Z,47.66
2022-08-09T01:32:34.348Z,47.82
2022-08-09T01:35:28.620Z,47.87
2022-08-09T01:38:08.129Z,47.63
2022-08-09T01:40:53.147Z,48.05
2022-08-09T01:43:51.110Z,48.08
2022-08-09T01:46:26.944Z,47.92
2022-08-09T01:49:09.441Z,47.99
2022-08-09T01:51:53.633Z,48.11
2022-08-09T01:54:27.711Z,48.39
2022-08-09T01:57:03.935Z,48.46
2022-08-09T01:59:50.947Z,48.21
2022-08-09T02:02:30.807Z,48.39
2022-08-09T02:05:15.294Z,48.40
2022-08-09T02:08:35.462Z,48.37
2022-08-09T02:10:51.471Z,48.77
2022-08-09T02:13:26.094Z,48.46
2022-08-09T02:16:10.874Z,48.96
2022-08-09T02:18:47.650Z,48.74
2022-08-09T02:21:22.576Z,48.93
2022-08-09T02:23:56.392Z,48.88
2022-08-09T02:26:27.453Z,48.86
2022-08-09T02:29:09.711Z,48.89
2022-08-09T02:31:43.320Z,48.69
2022-08-09T02:34:25.682Z,49.05
2022-08-09T02:37:16.193Z,49.10
2022-08-09T02:40:01.692Z,48.64
2022-08-09T02:42:44.440Z,48.89
2022-08-09T02:45:29.964Z,49.22
2022-08-09T02:48:12.352Z,48.93
2022-08-09T02:50:59.945Z,48.76
2022-08-09T02:53:37.015Z,48.78
2022-08-09T02:56:07.409Z,48.91
2022-08-09T02:58:37.891Z,48.85
2022-08-09T03:01:15.153Z,49.24
2022-08-09T03:04:17.806Z,49.31
2022-08-09T03:06:49.964Z,48.90
2022-08-09T03:09:22.117Z,49.20
2022-08-09T03:12:06.437Z,49.07
2022-08-09T03:14:43.280Z,49.48
2022-08-09T03:17:20.471Z,49.22
2022-08-09T03:20:11.504Z,49.00
2022-08-09T03:22:58.159Z,49.01
2022-08-09T03:25:58.505Z,49.19
2022-08-09T03:28:18.619Z,49.43
2022-08-09T03:30:48.942Z,49.38
2022-08-09T03:33:19.542Z,49.24
2022-08-09T03:36:13.936Z,49.43
2022-08-09T03:38:44.980Z,49.66
2022-08-09T03:41:18.230Z,49.21
2022-08-09T03:44:04.069Z,49.03
2022-08-09T03:46:39.673Z,49.53
2022-08-09T03:49:09.828Z,49.45
2022-08-09T03:51:55.587Z,49.51
2022-08-09T03:54:32.410Z,49.49
2022-08-09T03:57:18.283Z,49.58
2022-08-09T03:59:54.265Z,49.29
2022-08-09T04:02:28.361Z,49.13
2022-08-09T04:05:06.290Z,49.17
2022-08-09T04:07:52.843Z,49.32
2022-08-09T04:10:28.932Z,49.78
2022-08-09T04:13:04.205Z,49.07
2022-08-09T04:16:18.380Z,49.20
2022-08-09T04:18:24.999Z,49.30
2022-08-09T04:20:54.606Z,49.37
2022-08-09T04:23:25.856Z,49.48
2022-08-09T04:25:56.519Z,49.47
2022-08-09T04:28:33.916Z,49.55
2022-08-09T04:31:13.108Z,49.21
2022-08-09T04:33:47.600Z,49.20
2022-08-09T04:36:27.712Z,49.48
2022-08-09T04:38:59.570Z,49.25
2022-08-09T04:41:33.304Z,49.21
2022-08-09T04:44:09.734Z,49.21
2022-08-09T04:46:59.485Z,49.52
2022-08-09T04:49:54.541Z,49.52
2022-08-09T04:52:29.879Z,49.43
2022-08-09T04:55:02.091Z,49.32
2022-08-09T04:57:58.428Z,49.50
2022-08-09T05:00:23.865Z,49.67
2022-08-09T05:02:53.493Z,49.70
2022-08-09T05:05:32.402Z,49.82
2022-08-09T05:08:13.952Z,49.75
2022-08-09T05:10:44.636Z,49.75
2022-08-09T05:13:14.755Z,49.93
2022-08-09T05:15:48.238Z,49.80
2022-08-09T05:18:39.732Z,49.87
2022-08-09T05:21:20.815Z,49.69
2022-08-09T05:24:01.538Z,49.84
2022-08-09T05:26:45.775Z,49.85
2022-08-09T05:29:24.504Z,49.90
2022-08-09T05:32:05.863Z,50.01
2022-08-09T05:34:35.218Z,49.99
2022-08-09T05:37:11.280Z,49.79
2022-08-09T05:39:43.480Z,49.83
2022-08-09T05:42:21.208Z,50.10
2022-08-09T05:44:52.676Z,50.24
2022-08-09T05:47:23.795Z,49.89
2022-08-09T05:50:30.682Z,50.00
2022-08-09T05:52:53.752Z,49.83
2022-08-09T05:55:25.158Z,50.02
2022-08-09T05:57:57.021Z,50.29
2022-08-09T06:00:29.532Z,50.01
2022-08-09T06:03:04.015Z,49.99
2022-08-09T06:05:54.625Z,50.22
2022-08-09T06:08:29.440Z,49.75
2022-08-09T06:11:01.004Z,50.20
2022-08-09T06:13:34.211Z,49.92
2022-08-09T06:16:05.379Z,49.89
2022-08-09T06:18:36.498Z,50.41
2022-08-09T06:21:07.890Z,50.27
2022-08-09T06:23:57.207Z,50.05
2022-08-09T06:26:28.157Z,49.75
2022-08-09T06:29:04.562Z,49.99
2022-08-09T06:31:39.748Z,50.27
2022-08-09T06:34:29.720Z,50.49
2022-08-09T06:37:00.294Z,50.26
2022-08-09T06:39:48.759Z,50.00
2022-08-09T06:42:24.332Z,50.06
2022-08-09T06:44:54.712Z,49.83
2022-08-09T06:47:24.253Z,50.17
2022-08-09T06:50:14.154Z,50.07
2022-08-09T06:52:49.435Z,50.44
2022-08-09T06:55:23.129Z,49.88
2022-08-09T06:58:02.483Z,50.14
2022-08-09T07:00:52.036Z,50.01
2022-08-09T07:03:29.002Z,49.98
2022-08-09T07:06:03.833Z,50.17
2022-08-09T07:08:37.258Z,50.44
2022-08-09T07:11:12.697Z,50.37
2022-08-09T07:14:04.775Z,50.43
2022-08-09T07:16:41.822Z,50.36
2022-08-09T07:19:23.463Z,49.77
2022-08-09T07:21:57.587Z,49.89
2022-08-09T07:24:40.597Z,50.58
2022-08-09T07:27:33.867Z,49.91
2022-08-09T07:30:05.869Z,50.20
2022-08-09T07:32:37.699Z,49.94
2022-08-09T07:35:14.802Z,50.52
2022-08-09T07:37:49.150Z,50.14
2022-08-09T07:40:27.073Z,49.82
2022-08-09T07:43:00.292Z,49.98
2022-08-09T07:45:39.621Z,50.06
2022-08-09T07:48:25.583Z,50.64
2022-08-09T07:52:03.762Z,50.41
2022-08-09T07:54:07.836Z,50.76
2022-08-09T07:56:48.937Z,50.43
2022-08-09T07:59:34.218Z,50.43
2022-08-09T08:02:13.099Z,50.17
2022-08-09T08:04:53.843Z,50.13
2022-08-09T08:08:43.864Z,50.34
2022-08-09T08:10:13.297Z,50.20
2022-08-09T08:12:45.181Z,50.16
2022-08-09T08:15:23.029Z,50.89
2022-08-09T08:17:58.636Z,50.29
2022-08-09T08:20:35.694Z,50.96
2022-08-09T08:23:17.074Z,51.22
2022-08-09T08:25:53.959Z,50.66
2022-08-09T08:28:37.690Z,51.38
2022-08-09T08:31:14.012Z,51.02
2022-08-09T08:33:52.329Z,50.83
2022-08-09T08:36:28.918Z,51.09
2022-08-09T08:39:03.664Z,51.21
2022-08-09T08:41:50.470Z,51.67
2022-08-09T08:44:27.421Z,50.82
2022-08-09T08:47:05.212Z,51.84
2022-08-09T08:49:52.303Z,51.92
2022-08-09T08:52:57.814Z,51.73
2022-08-09T08:55:15.083Z,51.88
2022-08-09T08:57:57.558Z,51.69
2022-08-09T09:00:34.302Z,51.70
2022-08-09T09:03:11.178Z,51.89
2022-08-09T09:06:00.710Z,52.24
2022-08-09T09:08:40.761Z,51.99
2022-08-09T09:11:13.699Z,52.40
2022-08-09T09:13:57.481Z,51.99
2022-08-09T09:16:35.778Z,51.89
2022-08-09T09:22:11.415Z,52.07
2022-08-09T09:24:51.513Z,52.31
2022-08-09T09:28:06.344Z,52.11
2022-08-09T09:30:38.002Z,52.70
2022-08-09T09:33:16.701Z,52.44
2022-08-09T09:36:20.888Z,52.62
2022-08-09T09:38:58.035Z,52.90
2022-08-09T09:41:28.310Z,52.33
2022-08-09T09:44:12.543Z,52.43
2022-08-09T09:46:51.701Z,52.44
2022-08-09T09:49:56.314Z,53.13
2022-08-09T09:52:16.581Z,52.94
2022-08-09T09:55:24.097Z,52.67
2022-08-09T09:58:17.376Z,53.09
2022-08-09T10:01:00.145Z,52.91
2022-08-09T10:03:43.786Z,53.34
2022-08-09T10:06:14.497Z,52.84
2022-08-09T10:08:54.736Z,53.43
2022-08-09T10:12:00.132Z,53.28
2022-08-09T10:14:30.327Z,52.96
2022-08-09T10:17:24.132Z,53.03
2022-08-09T10:19:52.931Z,53.35
2022-08-09T10:22:37.183Z,52.92
2022-08-09T10:25:11.319Z,53.23
2022-08-09T10:27:56.264Z,53.75
2022-08-09T10:34:07.684Z,53.79
2022-08-09T10:36:12.250Z,53.20
2022-08-09T10:38:56.750Z,54.03
2022-08-09T10:41:28.888Z,53.71
2022-08-09T10:44:01.889Z,53.80
2022-08-09T10:47:01.383Z,53.63
2022-08-09T10:49:55.537Z,54.00
2022-08-09T10:53:00.167Z,54.16
2022-08-09T10:55:55.429Z,54.27
2022-08-09T10:58:37.448Z,54.06
2022-08-09T11:03:03.068Z,54.54
2022-08-09T11:04:29.717Z,54.25
2022-08-09T11:07:01.529Z,54.39
2022-08-09T11:09:41.353Z,54.43
2022-08-09T11:12:30.348Z,54.21
2022-08-09T11:15:34.041Z,54.33
2022-08-09T11:18:08.265Z,54.73
2022-08-09T11:20:49.672Z,54.47
2022-08-09T11:23:24.050Z,54.91
2022-08-09T11:26:00.182Z,54.93
2022-08-09T11:28:53.975Z,55.09
2022-08-09T11:31:49.774Z,54.68
2022-08-09T11:34:26.943Z,54.83
2022-08-09T11:36:58.606Z,54.95
2022-08-09T11:39:33.534Z,54.50
2022-08-09T11:42:14.633Z,54.50
2022-08-09T11:44:49.658Z,54.59
2022-08-09T11:47:19.062Z,54.53
2022-08-09T11:50:55.201Z,54.84
2022-08-09T11:53:57.744Z,55.00
2022-08-09T11:56:22.066Z,55.16
2022-08-09T11:59:13.738Z,55.00
2022-08-09T12:02:17.643Z,55.29
2022-08-09T12:04:37.194Z,54.65
2022-08-09T12:07:08.732Z,54.79
2022-08-09T12:09:38.674Z,54.82
2022-08-09T12:12:12.116Z,54.94
2022-08-09T12:15:07.374Z,55.10
2022-08-09T12:17:42.298Z,55.19
2022-08-09T12:20:22.309Z,55.26
2022-08-09T12:22:58.222Z,55.34
2022-08-09T12:25:36.060Z,55.49
2022-08-09T12:29:11.739Z,55.45
2022-08-09T12:31:10.693Z,55.53
2022-08-09T12:33:58.586Z,55.28
2022-08-09T12:36:33.665Z,55.68
2022-08-09T12:39:05.516Z,55.24
2022-08-09T12:41:40.643Z,55.57
2022-08-09T12:44:12.927Z,55.58
2022-08-09T12:46:50.678Z,55.54
2022-08-09T12:49:20.958Z,56.01
2022-08-09T12:52:03.421Z,55.94
2022-08-09T12:56:10.724Z,55.97
2022-08-09T12:57:46.732Z,55.71
2022-08-09T13:00:25.566Z,56.01
2022-08-09T13:03:00.338Z,56.01
2022-08-09T13:05:51.556Z,56.46
2022-08-09T13:08:39.970Z,56.13
2022-08-09T13:11:13.100Z,56.90
2022-08-09T13:14:37.199Z,56.86
2022-08-09T13:16:59.660Z,56.99
2022-08-09T13:20:09.040Z,56.75
2022-08-09T13:23:00.552Z,56.89
2022-08-09T13:25:19.436Z,56.53
2022-08-09T13:27:55.846Z,57.00
2022-08-09T13:30:51.347Z,59.25
2022-08-09T13:33:52.944Z,60.34
2022-08-09T13:36:37.348Z,61.85
2022-08-09T13:41:51.971Z,62.63
2022-08-09T13:42:02.412Z,63.58
2022-08-09T13:44:33.761Z,64.08
2022-08-09T13:47:31.541Z,64.09
2022-08-09T13:50:12.350Z,64.48
2022-08-09T13:52:47.709Z,63.90
2022-08-09T13:55:21.084Z,63.26
2022-08-09T13:57:53.092Z,62.39
2022-08-09T14:00:29.014Z,62.55
2022-08-09T14:03:04.047Z,62.29
2022-08-09T14:05:59.973Z,61.44
2022-08-09T14:08:33.339Z,61.13
2022-08-09T14:11:02.903Z,61.20
2022-08-09T14:14:15.819Z,60.83
2022-08-09T14:16:31.378Z,60.28
2022-08-09T14:19:04.310Z,59.78
2022-08-09T14:21:35.304Z,59.95
2022-08-09T14:24:18.548Z,59.31
2022-08-09T14:27:00.848Z,59.35
2022-08-09T14:30:35.888Z,59.04
2022-08-09T14:32:30.737Z,58.94
2022-08-09T14:35:03.003Z,58.68
2022-08-09T14:37:41.341Z,58.63
2022-08-09T14:40:38.951Z,58.60
2022-08-09T14:43:19.834Z,58.70
2022-08-09T14:46:54.412Z,58.30
2022-08-09T14:48:44.395Z,58.29
2022-08-09T14:51:15.627Z,57.73
2022-08-09T14:53:52.317Z,57.81
2022-08-09T14:56:26.882Z,57.60
2022-08-09T14:58:57.876Z,57.33
2022-08-09T15:01:33.788Z,57.84
2022-08-09T15:04:04.537Z,57.73
2022-08-09T15:06:39.337Z,57.39
2022-08-09T15:09:10.171Z,57.32
2022-08-09T15:11:41.866Z,57.49
2022-08-09T15:14:19.475Z,57.28
2022-08-09T15:16:49.265Z,57.44
2022-08-09T15:19:26.082Z,57.48
2022-08-09T15:22:02.105Z,57.43
2022-08-09T15:24:32.469Z,57.13
2022-08-09T15:27:03.269Z,57.10
2022-08-09T15:30:48.497Z,57.02
2022-08-09T15:32:39.124Z,57.20
2022-08-09T15:35:40.272Z,57.21
2022-08-09T15:38:11.619Z,56.83
2022-08-09T15:40:46.300Z,56.87
2022-08-09T15:43:17.364Z,57.10
2022-08-09T15:45:51.701Z,56.73
2022-08-09T15:48:38.562Z,56.91
2022-08-09T15:51:44.175Z,56.72
2022-08-09T15:54:27.484Z,57.19
2022-08-09T15:57:01.383Z,56.65
2022-08-09T15:59:38.160Z,56.92
2022-08-09T16:02:08.133Z,56.55
2022-08-09T16:04:43.575Z,56.67
2022-08-09T16:07:13.745Z,56.56
2022-08-09T16:09:57.719Z,56.72
2022-08-09T16:12:34.217Z,56.32
2022-08-09T16:16:11.205Z,56.18
2022-08-09T16:18:00.959Z,56.40
2022-08-09T16:20:33.432Z,56.53
2022-08-09T16:23:03.116Z,56.58
2022-08-09T16:25:40.297Z,56.70
2022-08-09T16:28:12.250Z,56.28
2022-08-09T16:30:44.615Z,56.07
2022-08-09T16:33:16.271Z,56.72
2022-08-09T16:35:53.160Z,56.27
2022-08-09T16:38:25.595Z,56.46
2022-08-09T16:40:55.693Z,56.29
2022-08-09T16:43:30.377Z,56.63
2022-08-09T16:46:01.657Z,56.49
2022-08-09T16:48:40.666Z,56.60
2022-08-09T16:51:21.483Z,54.85
2022-08-09T16:54:25.147Z,54.08
2022-08-09T16:56:42.701Z,54.43
2022-08-09T16:59:19.428Z,54.49
2022-08-09T17:01:53.100Z,55.20
2022-08-09T17:04:28.025Z,55.33
2022-08-09T17:08:40.154Z,55.16
2022-08-09T17:09:52.274Z,54.94
2022-08-09T17:12:31.258Z,54.89
2022-08-09T17:15:02.328Z,55.29
2022-08-09T17:17:51.906Z,54.93
2022-08-09T17:20:37.017Z,54.99
2022-08-09T17:23:14.610Z,55.59
2022-08-09T17:25:45.035Z,55.43
2022-08-09T17:28:23.157Z,55.21
2022-08-09T17:30:53.120Z,55.05
2022-08-09T17:33:24.447Z,55.11
2022-08-09T17:35:56.015Z,55.59
2022-08-09T17:38:33.937Z,55.21
2022-08-09T17:41:08.348Z,55.62
2022-08-09T17:43:39.001Z,55.66
2022-08-09T17:46:10.134Z,55.41
2022-08-09T17:48:46.555Z,55.00
2022-08-09T17:51:24.077Z,55.47
2022-08-09T17:54:01.086Z,55.25
2022-08-09T17:56:35.927Z,55.21
2022-08-09T17:59:11.530Z,55.36
2022-08-09T18:02:11.758Z,55.41
2022-08-09T18:04:32.634Z,55.35
2022-08-09T18:07:04.626Z,55.59
2022-08-09T18:09:41.570Z,55.38
2022-08-09T18:12:20.583Z,55.46
2022-08-09T18:14:54.731Z,55.42
2022-08-09T18:18:01.660Z,55.50
2022-08-09T18:20:54.309Z,55.54
2022-08-09T18:24:11.677Z,55.36
2022-08-09T18:25:59.775Z,55.38
2022-08-09T18:30:37.959Z,55.98
2022-08-09T18:31:32.430Z,55.89
2022-08-09T18:34:11.011Z,55.36
2022-08-09T18:36:41.522Z,55.48
2022-08-09T18:39:19.326Z,55.98
2022-08-09T18:41:53.165Z,55.57
2022-08-09T18:44:27.825Z,55.94
2022-08-09T18:47:07.725Z,55.58
2022-08-09T18:49:46.376Z,55.51
2022-08-09T18:52:28.659Z,55.81
2022-08-09T18:55:05.735Z,55.81
2022-08-09T18:57:45.531Z,55.45
2022-08-09T19:00:20.230Z,55.71
2022-08-09T19:02:54.267Z,55.73
2022-08-09T19:05:48.861Z,55.41
2022-08-09T19:08:18.545Z,55.19
2022-08-09T19:10:50.729Z,55.68
2022-08-09T19:13:37.805Z,55.28
2022-08-09T19:16:09.213Z,54.87
2022-08-09T19:18:43.761Z,55.17
2022-08-09T19:21:15.400Z,55.09
2022-08-09T19:24:35.889Z,54.70
2022-08-09T19:26:38.742Z,54.74
2022-08-09T19:29:18.455Z,54.33
2022-08-09T19:31:52.335Z,54.71
2022-08-09T19:34:32.277Z,54.48
2022-08-09T19:37:06.148Z,54.24
2022-08-09T19:40:04.237Z,54.45
2022-08-09T19:42:34.908Z,53.92
2022-08-09T19:45:04.756Z,54.27
2022-08-09T19:47:38.321Z,54.37
2022-08-09T19:50:51.512Z,53.83
2022-08-09T19:52:57.677Z,54.47
2022-08-09T19:55:53.068Z,53.58
2022-08-09T19:58:30.070Z,53.46
2022-08-09T20:01:01.466Z,53.60
2022-08-09T20:04:10.485Z,53.83
2022-08-09T20:06:24.181Z,53.31
2022-08-09T20:09:01.033Z,53.45
2022-08-09T20:11:43.173Z,53.89
2022-08-09T20:14:18.532Z,53.34
2022-08-09T20:16:54.199Z,53.42
2022-08-09T20:19:49.618Z,52.88
2022-08-09T20:22:15.319Z,53.31
2022-08-09T20:24:53.948Z,53.13
2022-08-09T20:27:24.121Z,53.29
2022-08-09T20:29:53.396Z,52.99
2022-08-09T20:32:30.616Z,52.83
2022-08-09T20:35:12.124Z,52.39
2022-08-09T20:38:23.992Z,52.49
2022-08-09T20:40:31.454Z,52.37
2022-08-09T20:43:18.883Z,52.39
2022-08-09T20:46:00.753Z,52.32
2022-08-09T20:48:41.970Z,52.10
2022-08-09T20:51:19.684Z,51.99
2022-08-09T20:53:50.037Z,51.71
2022-08-09T20:56:26.223Z,51.64
2022-08-09T20:58:58.655Z,51.88
2022-08-09T21:01:50.086Z,51.83
2022-08-09T21:05:53.795Z,51.27
2022-08-09T21:07:16.394Z,51.34
2022-08-09T21:09:56.884Z,51.97
2022-08-09T21:12:56.379Z,52.06
2022-08-09T21:15:34.888Z,51.56
2022-08-09T21:18:22.064Z,51.84
2022-08-09T21:20:56.313Z,52.21
2022-08-09T21:23:47.136Z,51.62
2022-08-09T21:26:15.819Z,51.66
2022-08-09T21:28:55.519Z,51.70
2022-08-09T21:31:48.949Z,51.96
2022-08-09T21:34:28.719Z,50.45
2022-08-09T21:36:59.537Z,50.64
2022-08-09T21:39:42.106Z,53.60
2022-08-09T21:42:14.724Z,54.25
2022-08-09T21:44:44.341Z,54.79
2022-08-09T21:47:18.196Z,55.13
2022-08-09T21:49:50.940Z,55.36
2022-08-09T21:52:22.737Z,56.00
2022-08-09T21:55:03.852Z,55.57
2022-08-09T21:57:59.260Z,52.96
2022-08-09T22:00:32.266Z,46.92
2022-08-09T22:03:19.205Z,45.13
2022-08-09T22:05:51.239Z,46.40
2022-08-09T22:08:22.923Z,43.47
2022-08-09T22:11:05.130Z,42.80
2022-08-09T22:13:46.573Z,42.32
2022-08-09T22:16:17.038Z,41.60
2022-08-09T22:18:53.980Z,40.52
2022-08-09T22:21:45.350Z,40.04
2022-08-09T22:24:20.983Z,39.71
2022-08-09T22:26:55.327Z,39.00
2022-08-09T22:29:32.384Z,39.13
2022-08-09T22:32:30.144Z,38.41
2022-08-09T22:35:02.658Z,37.96
2022-08-09T22:37:40.315Z,38.32
2022-08-09T22:40:20.014Z,37.85
2022-08-09T22:42:51.626Z,37.89
2022-08-09T22:48:11.470Z,37.98
2022-08-09T22:48:35.919Z,38.44
2022-08-09T22:51:10.638Z,38.68
2022-08-09T22:54:02.751Z,38.07
2022-08-09T22:56:34.522Z,37.78
2022-08-09T22:59:56.251Z,37.88
2022-08-09T23:01:59.174Z,37.41
2022-08-09T23:04:32.533Z,37.61
2022-08-09T23:07:31.130Z,37.57
2022-08-09T23:10:10.836Z,37.71
2022-08-09T23:12:40.698Z,37.53
2022-08-09T23:15:11.836Z,37.33
2022-08-09T23:17:41.687Z,37.05
2022-08-09T23:20:12.051Z,37.37
2022-08-09T23:22:41.910Z,37.23
2022-08-09T23:25:12.327Z,37.17
2022-08-09T23:28:14.377Z,37.06
2022-08-09T23:30:33.049Z,37.38
2022-08-09T23:33:02.627Z,39.19
2022-08-09T23:35:32.039Z,38.06
2022-08-09T23:38:23.311Z,37.96
2022-08-09T23:40:53.085Z,37.50
2022-08-09T23:43:23.083Z,37.67
2022-08-09T23:45:53.138Z,37.07
2022-08-09T23:48:22.768Z,37.28
2022-08-09T23:50:53.509Z,37.34
2022-08-09T23:53:23.095Z,37.13
2022-08-09T23:55:58.737Z,37.12
2022-08-09T23:58:30.037Z,37.68
